createdAt,value
2023-01-20T00:00:12.513Z,224.87
2023-01-20T00:10:16.141Z,233.40
2023-01-20T00:20:20.968Z,230.63
2023-01-20T00:30:24.460Z,230.70
2023-01-20T00:40:29.316Z,228.87
2023-01-20T00:50:32.728Z,233.63
2023-01-20T01:00:38.072Z,237.27
2023-01-20T01:10:41.643Z,245.23
2023-01-20T01:20:46.437Z,237.63
2023-01-20T01:30:49.939Z,242.07
2023-01-20T01:40:56.648Z,234.33
2023-01-20T01:51:04.287Z,230.40
2023-01-20T02:01:09.444Z,234.37
2023-01-20T02:11:13.014Z,233.40
2023-01-20T02:21:49.848Z,234.50
2023-01-20T02:32:27.132Z,231.33
2023-01-20T02:42:39.591Z,229.83
2023-01-20T02:52:51.930Z,231.37
2023-01-20T03:02:57.759Z,230.10
2023-01-20T03:13:09.915Z,231.97
2023-01-20T03:23:13.372Z,233.03
2023-01-20T03:33:19.401Z,238.83
2023-01-20T03:43:32.341Z,228.07
2023-01-20T03:53:45.487Z,226.23
2023-01-20T04:03:54.129Z,231.60
2023-01-20T04:13:58.964Z,238.37
2023-01-20T04:24:08.148Z,235.13
2023-01-20T04:34:16.386Z,240.73
2023-01-20T04:44:19.842Z,251.23
2023-01-20T04:54:24.645Z,250.47
2023-01-20T05:04:28.124Z,243.83
2023-01-20T05:14:32.967Z,244.07
2023-01-20T05:24:36.518Z,248.13
2023-01-20T05:34:41.324Z,240.33
2023-01-20T05:44:44.824Z,240.50
2023-01-20T05:54:49.693Z,249.10
2023-01-20T06:04:56.492Z,228.60
2023-01-20T06:15:01.479Z,218.60
2023-01-20T06:25:05.726Z,222.80
2023-01-20T06:35:11.784Z,227.00
2023-01-20T06:45:17.028Z,216.77
2023-01-20T06:55:22.041Z,223.93
2023-01-20T07:05:25.539Z,215.30
2023-01-20T07:15:30.344Z,222.30
2023-01-20T07:25:34.093Z,222.80
2023-01-20T07:35:38.958Z,224.37
2023-01-20T07:45:42.417Z,228.83
2023-01-20T07:55:47.240Z,230.93
2023-01-20T08:05:50.687Z,231.23
2023-01-20T08:15:55.763Z,227.67
2023-01-20T08:26:00.032Z,223.63
2023-01-20T08:36:12.395Z,246.17
2023-01-20T08:46:17.782Z,243.70
2023-01-20T08:56:22.993Z,245.80
2023-01-20T09:06:27.244Z,253.07
2023-01-20T09:16:32.186Z,258.07
2023-01-20T09:26:39.461Z,261.53
2023-01-20T09:36:44.251Z,249.70
2023-01-20T09:47:23.306Z,245.77
2023-01-20T09:57:36.701Z,246.37
2023-01-20T10:07:50.760Z,253.60
2023-01-20T10:18:00.524Z,252.30
2023-01-20T10:28:12.057Z,258.43
2023-01-20T10:38:26.404Z,253.90
2023-01-20T10:48:55.651Z,234.30
2023-01-20T10:59:05.604Z,246.63
2023-01-20T11:09:22.333Z,249.03
2023-01-20T11:19:27.139Z,254.00
2023-01-20T11:29:32.014Z,257.80
2023-01-20T11:39:43.909Z,236.83
2023-01-20T11:49:47.587Z,229.27
2023-01-20T11:59:52.430Z,237.33
2023-01-20T12:10:04.000Z,238.27
2023-01-20T12:20:15.386Z,235.23
2023-01-20T12:30:44.379Z,232.27
2023-01-20T12:40:52.627Z,231.57
2023-01-20T12:51:16.106Z,232.33
2023-01-20T13:01:47.223Z,236.83
2023-01-20T13:12:05.013Z,235.07
2023-01-20T13:22:14.187Z,231.03
2023-01-20T13:32:36.418Z,223.43
2023-01-20T13:42:54.337Z,227.27
2023-01-20T13:53:28.452Z,242.10
2023-01-20T14:04:04.135Z,229.20
2023-01-20T14:14:07.804Z,232.80
2023-01-20T14:24:29.658Z,233.67
2023-01-20T14:34:34.210Z,231.87
2023-01-20T14:44:39.213Z,229.87
2023-01-20T14:54:45.974Z,228.87
2023-01-20T15:04:50.913Z,236.83
2023-01-20T15:15:12.167Z,227.40
2023-01-20T15:25:22.598Z,238.17
2023-01-20T15:35:26.958Z,235.47
2023-01-20T15:45:31.812Z,228.30
2023-01-20T15:55:36.947Z,238.43
2023-01-20T16:05:41.848Z,223.90
2023-01-20T16:15:45.406Z,218.77
2023-01-20T16:25:50.291Z,217.47
2023-01-20T16:35:56.659Z,206.93
2023-01-20T16:46:01.604Z,210.80
2023-01-20T16:56:05.284Z,209.97
2023-01-20T17:06:17.716Z,211.53
2023-01-20T17:16:22.479Z,205.30
2023-01-20T17:26:27.876Z,210.63
2023-01-20T17:36:34.402Z,225.37
2023-01-20T17:46:39.435Z,229.57
2023-01-20T17:56:42.909Z,226.00
2023-01-20T18:06:48.023Z,213.20
2023-01-20T18:16:51.534Z,207.33
2023-01-20T18:26:57.972Z,212.80
2023-01-20T18:37:01.629Z,213.83
2023-01-20T18:47:07.890Z,214.63
2023-01-20T18:57:11.448Z,207.67
2023-01-20T19:07:16.392Z,201.70
2023-01-20T19:17:22.712Z,195.63
2023-01-20T19:27:27.524Z,195.07
2023-01-20T19:37:32.584Z,200.93
2023-01-20T19:47:40.320Z,203.33
2023-01-20T19:57:44.103Z,200.57
2023-01-20T20:07:49.884Z,207.47
2023-01-20T20:17:58.685Z,207.33
2023-01-20T20:28:06.204Z,207.30
2023-01-20T20:38:09.907Z,204.57
2023-01-20T20:48:14.844Z,205.30
2023-01-20T20:58:18.894Z,203.83
2023-01-20T21:08:25.427Z,200.73
2023-01-20T21:18:29.544Z,207.73
2023-01-20T21:28:36.694Z,204.20
2023-01-20T21:38:41.577Z,200.23
2023-01-20T21:49:07.144Z,201.30
2023-01-20T21:59:11.223Z,195.67
2023-01-20T22:09:16.163Z,196.10
2023-01-20T22:19:19.779Z,192.70
2023-01-20T22:29:25.312Z,189.67
2023-01-20T22:39:29.235Z,187.97
2023-01-20T22:49:34.018Z,189.40
2023-01-20T22:59:37.465Z,191.07
2023-01-20T23:09:42.380Z,189.87
2023-01-20T23:19:45.799Z,192.67
2023-01-20T23:29:52.347Z,189.70
2023-01-20T23:39:55.876Z,190.93
2023-01-20T23:50:00.690Z,190.47
